• Join FlightAware (Why Join?)
  • Login
  • US Flag 
09:42AM EST


 

Airport Tracker/Info


-or-


 

Live Flight TrackerFlight Track Log ✈ N600TR ✈ 18-Aug-2013 ✈ KATL - KGSO

Flight Track Log - Related Links

Times and Time Zones

All times are in EDT time to prevent confusion due to time zone crossing. See the N600TR flight status page for this flight to view local times or setup timezone preferences in your user account.

Time Position Orientation Groundspeed Altitude Reporting Facility
EDT Latitude Longitude Course Direction KTS MPH feet Rate Location/Type
12:27PM 33.6500 -84.4000 54° Northeast 158 182 2,100  Level Atlanta TRACON
12:28PM 33.6667 -84.3333 73° East 255 293 3,600 2,040 Climbing Atlanta TRACON
12:29PM 33.7000 -84.2500 64° Northeast 285 328 6,000 2,580 Climbing Atlanta TRACON
12:30PM 33.8219 -83.8895 59° Northeast  Level FlightAware Approximate
12:30PM 33.7500 -84.1667 54° Northeast 306 352 8,300  Level Atlanta TRACON
12:31PM 33.8862 -83.7681 54° Northeast  Level FlightAware Approximate
12:32PM 33.9570 -83.6519 54° Northeast  Level FlightAware Approximate
12:32PM 33.8214 -84.0314 58° Northeast 337 388 10,000  Level Atlanta Center
12:33PM 33.8778 -83.9186 59° Northeast 378 435 13,000 2,700 Climbing Atlanta Center
12:34PM 33.9358 -83.8108 57° Northeast 383 441 15,500 2,160 Climbing Atlanta Center
12:35PM 33.9942 -83.7006 57° Northeast 390 449 17,400 1,560 Climbing Atlanta Center
12:36PM 34.0669 -83.5925 51° Northeast 404 465 18,700 1,260 Climbing Atlanta Center
12:37PM 34.1353 -83.4842 53° Northeast 406 467 20,000 1,320 Climbing Atlanta Center
12:38PM 34.2036 -83.3656 55° Northeast 419 482 21,400 1,320 Climbing Atlanta Center
12:39PM 34.2800 -83.2344 55° Northeast 426 490 22,700 1,200 Climbing Atlanta Center
12:40PM 34.3500 -83.1078 56° Northeast 443 510 23,800 1,200 Climbing Atlanta Center
12:41PM 34.4325 -82.9886 50° Northeast 457 526 25,100 1,080 Climbing Atlanta Center
12:42PM 34.5150 -82.8639 51° Northeast 473 544 26,000 1,020 Climbing Atlanta Center
12:43PM 34.6014 -82.7367 50° Northeast 473 544 27,200 960 Climbing Atlanta Center
12:44PM 34.6875 -82.6064 51° Northeast 480 552 28,000 780 Climbing Atlanta Center
12:45PM 34.7650 -82.4686 56° Northeast 486 559 28,800 480 Climbing Atlanta Center
12:46PM 34.8383 -82.3178 59° Northeast 498 573 29,000 60 Climbing Atlanta Center
12:47PM 34.9092 -82.1669 60° Northeast 505 581 29,000  Level Atlanta Center
12:48PM 34.9819 -82.0233 58° Northeast 505 581 29,000  Level Atlanta Center
12:49PM 35.0883 -81.9042 42° Northeast 505 581 29,000 -1,200 Level Atlanta Center
12:50PM 35.2056 -81.8094 33° Northeast 505 581 26,600 -2,460 Descending Atlanta Center
12:51PM 35.3081 -81.7075 39° Northeast 494 568 24,100 -2,100 Descending Atlanta Center
12:52PM 35.4192 -81.6306 29° Northeast 469 540 22,500 -2,040 Descending Atlanta Center
12:53PM 35.5236 -81.5331 37° Northeast 456 525 20,100 -1,680 Descending Atlanta Center
12:54PM 35.6158 -81.4508 36° Northeast 456 525 19,200 -600 Descending Atlanta Center
12:55PM 35.7183 -81.3658 34° Northeast 451 519 19,000 -120 Descending Atlanta Center
12:56PM 35.8056 -81.2528 46° Northeast 446 513 19,000 -60 Level Atlanta Center
12:57PM 35.8814 -81.1094 57° Northeast 452 520 18,900 -540 Descending Atlanta Center
12:58PM 35.9453 -80.9892 57° Northeast 446 513 18,000 -2,100 Descending Atlanta Center
12:59PM 36.0050 -80.8764 57° Northeast 408 470 14,700 -3,480 Descending Atlanta Center
01:00PM 36.0644 -80.7533 59° Northeast 402 463 11,100 -1,860 Descending Atlanta Center
01:01PM 36.1047 -80.6258 69° East 396 456 11,000 -60 Descending Atlanta Center
01:02PM 36.1117 -80.5022 86° East 390 449 11,000 -300 Level Atlanta Center
01:03PM 36.1433 -80.3772 73° East 363 418 10,500 -1,200 Descending Atlanta Center
01:04PM 36.1864 -80.2778 62° Northeast 334 384 8,700 -1,800 Descending Atlanta Center
01:05PM 36.2250 -80.1781 64° Northeast 321 369 7,000 -1,500 Descending Atlanta Center
01:06PM 36.2639 -80.0886 62° Northeast 308 354 5,800 -1,380 Descending Atlanta Center
01:07PM 36.2819 -80.0028 75° East 282 325 4,300 -1,440 Descending Atlanta Center
01:08PM 36.2933 -79.9094 81° East 277 319 3,000 -600 Descending Atlanta Center
01:09PM 36.2947 -79.8244 89° East 263 303 3,100 60 Climbing Atlanta Center